Archival Weather

Yakutsk

Yakutsk, Russia (UEEE)

Report from: Sunday, February 5, 2023 2:30 PM JST
Current time: Sunday, July 14, 2024 10:09 AM JST

Current weather – Weather history – Daily summaries
Weather forecast

Present weatherMist
Temperature-37.0°C (-34.6°F)
Dew point-41.0°C (-41.8°F)
Winds 1.9 kts (1 m/s, 2.2 mph) South (170°)
Visibility3280.8 ft. (1 km)
Altimeter30.09 in.Hg (1019 mB)
Precip. events QF 4:35 PM
Relative humidity66 %
Density altitude-7,143 ft. (-2,177 m)
Remarks No significant changes expected in the next two hours
Flight conditions Low Instrument Meteorological Conditions
Raw dataUEEE 050530Z 17001MPS 1000 0800SW R23L/1000N BR NSC M37/M41 Q1019 R23L/490150 NOSIG RMK QFE755
An error has occurred. This application may no longer respond until reloaded. Reload 🗙